This is the latest recevied weather packets stored in our database for station/object NE8U. If no packets are shown the sender has not sent any weather packets the latest 10 day(s).
| Time | Temp. | Humidity | Pressure | Rain* | Wind** | Luminosity | Snow |
|---|---|---|---|---|---|---|---|
| 1777954159 | 14.44° C | 81% | 1016.5 hPa | 3.05 mm | - | 0 W/m² | - |
| 1777953857 | 15° C | 78% | 1016.7 hPa | 1.78 mm | - | 0 W/m² | - |
| 1777953553 | 16.11° C | 72% | 1016.4 hPa | 1.78 mm | - | 0 W/m² | - |
| 1777953249 | 16.67° C | 68% | 1016.6 hPa | 1.78 mm | - | 0 W/m² | - |
| 1777952947 | 17.78° C | 64% | 1016.6 hPa | 0 mm | - | 0 W/m² | - |
| 1777952643 | 17.78° C | 62% | 1016.4 hPa | 0 mm | - | 0 W/m² | - |
| 1777952341 | 18.33° C | 59% | 1015.9 hPa | 0 mm | - | 0 W/m² | - |
| 1777952037 | 18.33° C | 60% | 1015.6 hPa | 0 mm | - | 0 W/m² | - |
| 1777951735 | 18.33° C | 58% | 1015.2 hPa | 0 mm | - | 0 W/m² | - |
| 1777951432 | 17.78° C | 60% | 1015.2 hPa | 0 mm | - | 0 W/m² | - |
| 1777951128 | 17.78° C | 58% | 1014.9 hPa | 0 mm | - | 0 W/m² | - |
| 1777950825 | 17.22° C | 56% | 1014.8 hPa | 0 mm | - | 0 W/m² | - |
| 1777950523 | 17.22° C | 56% | 1014.6 hPa | 0 mm | - | 0 W/m² | - |
| 1777950218 | 16.67° C | 57% | 1015 hPa | 0 mm | - | 0 W/m² | - |
| 1777949914 | 16.11° C | 64% | 1015.2 hPa | 0 mm | - | 0 W/m² | - |
| 1777949612 | 16.67° C | 62% | 1015.4 hPa | 0 mm | - | 0 W/m² | - |
| 1777949310 | 16.67° C | 62% | 1015.4 hPa | 0 mm | - | 0 W/m² | - |
| 1777949007 | 16.11° C | 63% | 1015.3 hPa | 1.27 mm | - | 0 W/m² | - |
| 1777948704 | 16.67° C | 65% | 1015.3 hPa | 1.27 mm | - | 0 W/m² | - |
| 1777948401 | 16.67° C | 66% | 1015.5 hPa | 0 mm | - | 0 W/m² | - |
| 1777948099 | 16.11° C | 70% | 1015.7 hPa | 0 mm | - | 0 W/m² | - |
| 1777947795 | 15° C | 77% | 1016 hPa | 0 mm | - | 0 W/m² | - |
| 1777947493 | 15° C | 77% | 1015.7 hPa | 0 mm | - | 0 W/m² | - |
| 1777947189 | 15° C | 81% | 1016.2 hPa | 0 mm | - | 0 W/m² | - |
| 1777946885 | 15° C | 78% | 1015.9 hPa | 1.78 mm | - | 0 W/m² | - |
* Rain latest hour (hover to see other rain measurements)
** Current wind speed in m/s (hover to see current wind gust speed)